createdAt,value
2016-08-25T00:00:59.509Z,60.04
2016-08-25T00:02:11.078Z,60.62
2016-08-25T00:03:22.628Z,60.59
2016-08-25T00:04:34.203Z,60.3
2016-08-25T00:05:45.792Z,60.3
2016-08-25T00:06:58.063Z,60.3
2016-08-25T00:08:08.927Z,60.49
2016-08-25T00:09:20.501Z,60.49
2016-08-25T00:10:31.372Z,60.3
2016-08-25T00:11:43.666Z,60.49
2016-08-25T00:12:54.528Z,60.49
2016-08-25T00:14:04.691Z,60.3
2016-08-25T00:15:16.258Z,60.3
2016-08-25T00:16:27.127Z,59.82
2016-08-25T00:17:39.378Z,60.49
2016-08-25T00:18:50.936Z,60.59
2016-08-25T00:20:03.215Z,60.3
2016-08-25T00:21:14.799Z,60.3
2016-08-25T00:22:25.681Z,60.11
2016-08-25T00:23:37.967Z,60.59
2016-08-25T00:24:49.550Z,60.59
2016-08-25T00:26:01.151Z,60.59
2016-08-25T00:27:12.710Z,60.49
2016-08-25T00:28:24.275Z,60.21
2016-08-25T00:29:35.842Z,60.3
2016-08-25T00:30:47.411Z,60.49
2016-08-25T00:31:58.983Z,60.69
2016-08-25T00:33:09.873Z,60.21
2016-08-25T00:34:21.461Z,60.11
2016-08-25T00:35:33.042Z,59.99
2016-08-25T00:36:45.330Z,59.92
2016-08-25T00:37:56.912Z,59.82
2016-08-25T00:39:08.486Z,60.01
2016-08-25T00:40:20.053Z,59.92
2016-08-25T00:41:32.330Z,60.08
2016-08-25T00:42:44.661Z,60.08
2016-08-25T00:43:56.259Z,60.08
2016-08-25T00:45:08.530Z,60.08
2016-08-25T00:46:20.809Z,59.79
2016-08-25T00:47:31.684Z,60.27
2016-08-25T00:48:43.285Z,59.69
2016-08-25T00:49:54.882Z,59.99
2016-08-25T00:51:07.154Z,60.08
2016-08-25T00:52:18.736Z,60.08
2016-08-25T00:53:31.015Z,59.89
2016-08-25T00:54:42.607Z,59.89
2016-08-25T00:55:53.477Z,59.89
2016-08-25T00:57:05.051Z,59.79
2016-08-25T00:58:16.846Z,59.89
2016-08-25T00:59:29.123Z,59.99
2016-08-25T01:00:41.387Z,59.89
2016-08-25T01:01:52.262Z,60.08
2016-08-25T01:03:04.561Z,59.89
2016-08-25T01:04:16.126Z,60.08
2016-08-25T01:05:27.708Z,60.08
2016-08-25T01:06:39.993Z,59.99
2016-08-25T01:07:52.258Z,59.89
2016-08-25T01:09:03.835Z,59.89
2016-08-25T01:10:16.128Z,59.69
2016-08-25T01:11:28.400Z,59.99
2016-08-25T01:12:39.971Z,59.89
2016-08-25T01:13:52.261Z,59.99
2016-08-25T01:15:03.118Z,59.89
2016-08-25T01:16:14.685Z,59.99
2016-08-25T01:17:26.971Z,60.17
2016-08-25T01:18:38.536Z,59.79
2016-08-25T01:19:50.805Z,59.95
2016-08-25T01:21:02.398Z,59.76
2016-08-25T01:22:13.970Z,59.86
2016-08-25T01:23:26.246Z,59.86
2016-08-25T01:24:37.813Z,59.86
2016-08-25T01:25:49.407Z,59.76
2016-08-25T01:27:00.997Z,59.76
2016-08-25T01:28:13.269Z,60.14
2016-08-25T01:29:24.130Z,59.66
2016-08-25T01:30:35.000Z,59.95
2016-08-25T01:31:46.569Z,59.57
2016-08-25T01:32:57.433Z,59.95
2016-08-25T01:34:09.713Z,59.86
2016-08-25T01:35:21.987Z,59.95
2016-08-25T01:36:33.563Z,59.86
2016-08-25T01:37:45.137Z,59.86
2016-08-25T01:38:56.705Z,59.95
2016-08-25T01:40:08.987Z,59.95
2016-08-25T01:41:21.498Z,59.95
2016-08-25T01:42:33.775Z,59.95
2016-08-25T01:43:44.640Z,59.95
2016-08-25T01:44:56.204Z,60.14
2016-08-25T01:46:08.490Z,59.76
2016-08-25T01:47:20.077Z,59.76
2016-08-25T01:48:30.950Z,59.76
2016-08-25T01:49:43.250Z,59.76
2016-08-25T01:50:55.535Z,59.76
2016-08-25T01:52:07.105Z,59.86
2016-08-25T01:53:19.370Z,59.86
2016-08-25T01:54:30.937Z,60.05
2016-08-25T01:55:43.210Z,60.05
2016-08-25T01:56:55.471Z,59.92
2016-08-25T01:58:07.754Z,59.95
2016-08-25T01:59:19.320Z,59.76
2016-08-25T02:00:30.897Z,59.95
2016-08-25T02:01:42.465Z,59.66
2016-08-25T02:02:54.749Z,60.02
2016-08-25T02:04:07.011Z,60.05
2016-08-25T02:05:17.878Z,59.73
2016-08-25T02:06:28.760Z,59.66
2016-08-25T02:07:41.047Z,59.92
2016-08-25T02:08:53.335Z,59.73
2016-08-25T02:10:04.897Z,59.73
2016-08-25T02:11:17.166Z,59.83
2016-08-25T02:12:28.066Z,59.73
2016-08-25T02:13:40.134Z,59.83
2016-08-25T02:14:55.395Z,59.83
2016-08-25T02:16:08.072Z,60.11
2016-08-25T02:17:19.644Z,59.92
2016-08-25T02:18:31.943Z,59.83
2016-08-25T02:19:44.220Z,59.83
2016-08-25T02:20:56.489Z,59.83
2016-08-25T02:22:08.072Z,59.92
2016-08-25T02:23:20.338Z,59.92
2016-08-25T02:24:31.901Z,59.92
2016-08-25T02:25:42.759Z,59.73
2016-08-25T02:26:55.031Z,60.11
2016-08-25T02:28:07.307Z,60.02
2016-08-25T02:29:18.869Z,59.73
2016-08-25T02:30:31.121Z,60.02
2016-08-25T02:31:42.689Z,59.73
2016-08-25T02:32:54.951Z,59.92
2016-08-25T02:34:06.588Z,59.83
2016-08-25T02:35:18.151Z,59.83
2016-08-25T02:36:29.725Z,59.83
2016-08-25T02:37:41.994Z,59.83
2016-08-25T02:38:54.267Z,59.83
2016-08-25T02:40:05.836Z,59.83
2016-08-25T02:41:17.398Z,59.83
2016-08-25T02:42:29.669Z,59.92
2016-08-25T02:43:41.930Z,59.54
2016-08-25T02:44:54.220Z,59.73
2016-08-25T02:46:05.785Z,59.73
2016-08-25T02:47:17.362Z,60.11
2016-08-25T02:48:29.626Z,60.02
2016-08-25T02:49:40.501Z,60.02
2016-08-25T02:50:52.065Z,59.83
2016-08-25T02:52:02.936Z,59.73
2016-08-25T02:53:14.514Z,59.83
2016-08-25T02:54:26.073Z,59.83
2016-08-25T02:55:36.924Z,59.92
2016-08-25T02:56:49.201Z,60.02
2016-08-25T02:58:01.501Z,60.02
2016-08-25T03:30:55.532Z,58.18
2016-08-25T03:32:07.787Z,58.95
2016-08-25T03:33:18.649Z,60
2016-08-25T03:34:30.914Z,60.67
2016-08-25T03:35:43.236Z,60.67
2016-08-25T03:36:54.085Z,60.86
2016-08-25T03:38:06.369Z,60.96
2016-08-25T03:39:17.938Z,60.89
2016-08-25T03:40:28.809Z,60.89
2016-08-25T03:41:39.663Z,61.66
2016-08-25T03:42:50.528Z,60.99
2016-08-25T03:44:02.093Z,61.21
2016-08-25T03:45:14.371Z,60.83
2016-08-25T03:46:25.929Z,60.54
2016-08-25T03:47:37.517Z,60.96
2016-08-25T03:48:49.801Z,60.57
2016-08-25T03:50:01.381Z,60.86
2016-08-25T03:51:12.951Z,61.15
2016-08-25T03:52:25.231Z,60.22
2016-08-25T03:53:37.507Z,60.5
2016-08-25T03:54:49.084Z,60.31
2016-08-25T03:55:59.237Z,60.22
2016-08-25T03:57:10.101Z,60.5
2016-08-25T03:58:21.651Z,60.31
2016-08-25T03:59:32.521Z,60.44
2016-08-25T04:00:44.823Z,60.15
2016-08-25T04:01:56.402Z,59.96
2016-08-25T04:03:08.675Z,59.96
2016-08-25T04:04:20.269Z,60.15
2016-08-25T04:05:31.141Z,60.05
2016-08-25T04:06:41.303Z,60.15
2016-08-25T04:07:52.881Z,60.05
2016-08-25T04:09:04.450Z,60.05
2016-08-25T04:10:16.024Z,60.25
2016-08-25T04:11:26.889Z,60.35
2016-08-25T04:12:38.476Z,60.38
2016-08-25T04:13:50.773Z,60.25
2016-08-25T04:15:03.054Z,60.47
2016-08-25T04:16:15.321Z,59.41
2016-08-25T04:17:26.908Z,59.99
2016-08-25T04:18:37.777Z,59.8
2016-08-25T04:19:50.065Z,60.08
2016-08-25T04:21:02.346Z,59.89
2016-08-25T04:22:14.618Z,59.03
2016-08-25T04:23:26.907Z,59.06
2016-08-25T04:24:37.791Z,59.34
2016-08-25T04:25:50.068Z,59.54
2016-08-25T04:27:01.646Z,60.4
2016-08-25T04:28:13.905Z,60.4
2016-08-25T04:29:25.472Z,60.5
2016-08-25T04:30:37.047Z,59.83
2016-08-25T04:31:48.624Z,59.44
2016-08-25T04:33:00.907Z,59.38
2016-08-25T04:34:12.505Z,58.89
2016-08-25T04:35:24.762Z,58.06
2016-08-25T04:36:37.031Z,57.9
2016-08-25T04:37:47.899Z,57.35
2016-08-25T04:39:00.190Z,56.8
2016-08-25T04:40:12.447Z,56.35
2016-08-25T04:41:24.009Z,57.05
2016-08-25T04:42:35.576Z,55.99
2016-08-25T04:43:46.442Z,56.11
2016-08-25T04:44:58.019Z,56.11
2016-08-25T04:46:08.897Z,55.94
2016-08-25T04:47:21.171Z,55.88
2016-08-25T04:48:33.442Z,55.88
2016-08-25T04:49:45.254Z,56
2016-08-25T04:50:56.134Z,55.71
2016-08-25T04:52:07.725Z,55.93
2016-08-25T04:53:19.977Z,55.55
2016-08-25T04:54:32.253Z,56.03
2016-08-25T04:55:44.521Z,55.47
2016-08-25T04:56:56.816Z,55.6
2016-08-25T04:58:08.403Z,55.79
2016-08-25T04:59:19.971Z,55.51
2016-08-25T05:00:30.864Z,55.82
2016-08-25T05:01:43.130Z,56.02
2016-08-25T05:02:55.411Z,55.92
2016-08-25T05:04:07.687Z,55.63
2016-08-25T05:05:18.556Z,55.85
2016-08-25T05:06:30.106Z,55.94
2016-08-25T05:07:41.678Z,55.85
2016-08-25T05:08:53.954Z,56.14
2016-08-25T05:10:05.528Z,56.16
2016-08-25T05:11:17.118Z,56.16
2016-08-25T05:12:28.689Z,55.98
2016-08-25T05:13:40.260Z,56.07
2016-08-25T05:14:51.819Z,55.68
2016-08-25T05:16:02.704Z,56
2016-08-25T05:17:14.990Z,56.29
2016-08-25T05:18:26.556Z,56.2
2016-08-25T05:19:38.838Z,56.1
2016-08-25T05:20:49.714Z,55.74
2016-08-25T05:22:01.291Z,55.93
2016-08-25T05:23:12.861Z,55.83
2016-08-25T05:24:24.424Z,55.83
2016-08-25T05:25:36.008Z,55.93
2016-08-25T05:26:48.271Z,55.54
2016-08-25T05:27:59.878Z,55.64
2016-08-25T05:29:11.469Z,55.47
2016-08-25T05:30:23.735Z,55.57
2016-08-25T05:31:34.607Z,55.6
2016-08-25T05:32:46.883Z,55.6
2016-08-25T05:33:57.758Z,55.41
2016-08-25T05:35:10.040Z,55.41
2016-08-25T05:36:21.665Z,55.6
2016-08-25T05:37:33.929Z,55.5
2016-08-25T05:38:46.215Z,55.41
2016-08-25T05:39:57.798Z,55.99
2016-08-25T05:41:10.076Z,56.76
2016-08-25T05:42:22.376Z,58.16
2016-08-25T05:43:33.961Z,59.07
2016-08-25T05:44:46.239Z,59.27
2016-08-25T05:45:57.808Z,58.95
2016-08-25T05:47:10.074Z,57.53
2016-08-25T05:48:22.352Z,57.04
2016-08-25T05:49:33.223Z,57.71
2016-08-25T05:50:45.511Z,58.69
2016-08-25T05:51:57.795Z,59.05
2016-08-25T05:53:10.067Z,59.4
2016-08-25T05:54:22.347Z,59.79
2016-08-25T05:55:34.632Z,58.8
2016-08-25T05:56:46.209Z,59.01
2016-08-25T05:57:58.491Z,59.21
2016-08-25T05:59:10.773Z,59.18
2016-08-25T06:00:22.360Z,59.18
2016-08-25T06:01:34.644Z,58.5
2016-08-25T06:02:46.919Z,57.44
2016-08-25T06:03:59.206Z,57.08
2016-08-25T06:05:10.776Z,57.37
2016-08-25T06:06:23.059Z,57.86
2016-08-25T06:07:33.925Z,58.21
2016-08-25T06:08:46.197Z,58.5
2016-08-25T06:09:58.505Z,58.4
2016-08-25T06:11:10.785Z,57.63
2016-08-25T06:12:23.069Z,57.82
2016-08-25T06:13:35.359Z,57.24
2016-08-25T06:14:46.922Z,57.63
2016-08-25T06:15:58.485Z,57.73
2016-08-25T06:17:10.736Z,57.99
2016-08-25T06:18:23.021Z,58.47
2016-08-25T06:19:34.598Z,58.09
2016-08-25T06:20:46.880Z,58.28
2016-08-25T06:21:59.170Z,58.37
2016-08-25T06:23:11.665Z,58.28
2016-08-25T06:24:23.946Z,58.06
2016-08-25T06:25:36.222Z,58.45
2016-08-25T06:26:48.528Z,58.15
2016-08-25T06:28:00.801Z,58.64
2016-08-25T06:29:12.394Z,57.96
2016-08-25T06:30:24.669Z,57.96
2016-08-25T06:31:36.936Z,58.06
2016-08-25T06:32:49.203Z,58.06
2016-08-25T06:34:01.476Z,58.15
2016-08-25T06:35:13.761Z,57.87
2016-08-25T06:36:25.377Z,57.87
2016-08-25T06:37:36.954Z,57.77
2016-08-25T06:38:47.818Z,58.15
2016-08-25T06:40:00.089Z,57.77
2016-08-25T06:41:12.355Z,57.87
2016-08-25T06:42:24.633Z,57.96
2016-08-25T06:43:36.922Z,57.67
2016-08-25T06:44:49.209Z,57.87
2016-08-25T06:46:01.495Z,57.89
2016-08-25T06:47:13.067Z,57.7
2016-08-25T06:48:24.656Z,57.77
2016-08-25T06:49:36.935Z,58.18
2016-08-25T06:50:49.218Z,57.99
2016-08-25T06:52:01.504Z,58.09
2016-08-25T06:53:13.779Z,57.89
2016-08-25T06:54:26.060Z,57.99
2016-08-25T06:55:38.334Z,58.28
2016-08-25T06:56:50.593Z,57.7
2016-08-25T06:58:02.895Z,57.6
2016-08-25T06:59:14.472Z,57.31
2016-08-25T07:00:26.741Z,57.54
2016-08-25T07:09:27.905Z,57.54
2016-08-25T07:10:39.473Z,57.54
2016-08-25T07:11:51.745Z,57.56
2016-08-25T07:13:04.027Z,57.56
2016-08-25T07:14:16.306Z,57.56
2016-08-25T07:15:28.588Z,57.66
2016-08-25T07:16:40.849Z,57.37
2016-08-25T07:17:53.165Z,57.37
2016-08-25T07:19:04.744Z,57.66
2016-08-25T07:20:17.016Z,57.46
2016-08-25T07:21:28.587Z,57.37
2016-08-25T07:22:40.160Z,57.66
2016-08-25T07:23:52.439Z,57.56
2016-08-25T07:25:04.012Z,57.66
2016-08-25T07:26:16.279Z,57.56
2016-08-25T07:27:27.136Z,57.46
2016-08-25T07:28:39.403Z,57.37
2016-08-25T07:29:51.687Z,57.59
2016-08-25T07:31:03.269Z,57.59
2016-08-25T07:32:14.856Z,57.5
2016-08-25T07:33:27.129Z,57.3
2016-08-25T07:34:38.706Z,57.5
2016-08-25T07:35:50.979Z,57.59
2016-08-25T07:37:02.554Z,57.81
2016-08-25T07:38:14.841Z,57.33
2016-08-25T07:39:26.423Z,57.14
2016-08-25T07:40:38.694Z,57.14
2016-08-25T07:41:50.971Z,56.85
2016-08-25T07:43:03.253Z,57.07
2016-08-25T07:44:15.523Z,57.17
2016-08-25T07:45:27.096Z,57.07
2016-08-25T07:46:39.380Z,57.55
2016-08-25T07:47:51.657Z,56.97
2016-08-25T07:49:03.217Z,57.45
2016-08-25T07:50:14.792Z,57.45
2016-08-25T07:51:26.373Z,57.36
2016-08-25T07:52:38.670Z,57.45
2016-08-25T07:53:50.959Z,57.36
2016-08-25T07:55:03.239Z,57.17
2016-08-25T07:56:15.541Z,57.26
2016-08-25T07:57:27.875Z,57.07
2016-08-25T07:58:39.467Z,57.09
2016-08-25T07:59:51.079Z,57.29
2016-08-25T08:01:03.375Z,57.19
2016-08-25T08:02:15.697Z,57.19
2016-08-25T08:03:28.025Z,57.39
2016-08-25T08:04:40.307Z,57.19
2016-08-25T08:05:51.880Z,57.39
2016-08-25T08:07:03.460Z,57.19
2016-08-25T08:08:15.052Z,57.39
2016-08-25T08:09:25.975Z,57.39
2016-08-25T08:10:38.250Z,57.19
2016-08-25T08:11:50.531Z,56.9
2016-08-25T08:13:02.806Z,57
2016-08-25T08:14:13.693Z,56.9
2016-08-25T08:15:25.974Z,56.9
2016-08-25T08:16:38.264Z,56.74
2016-08-25T08:17:49.857Z,56.74
2016-08-25T08:19:02.145Z,57.12
2016-08-25T08:20:14.451Z,57.22
2016-08-25T08:21:26.730Z,57.03
2016-08-25T08:22:39.017Z,57.22
2016-08-25T08:23:51.574Z,56.74
2016-08-25T08:25:03.153Z,56.83
2016-08-25T08:26:15.461Z,56.74
2016-08-25T08:27:27.749Z,56.74
2016-08-25T08:28:40.042Z,56.76
2016-08-25T08:29:52.335Z,56.86
2016-08-25T08:31:03.916Z,56.67
2016-08-25T08:32:16.220Z,57.25
2016-08-25T08:33:27.796Z,57.06
2016-08-25T08:34:40.104Z,57.06
2016-08-25T08:35:52.394Z,57.15
2016-08-25T08:37:04.677Z,57.06
2016-08-25T08:38:16.940Z,57.18
2016-08-25T08:39:29.219Z,57.15
2016-08-25T08:40:41.499Z,56.98
2016-08-25T08:41:53.813Z,57.28
2016-08-25T08:43:06.098Z,57.08
2016-08-25T08:44:18.378Z,56.6
2016-08-25T08:45:30.666Z,56.52
2016-08-25T08:46:42.931Z,56.52
2016-08-25T08:47:55.218Z,56.43
2016-08-25T08:49:06.098Z,56.82
2016-08-25T08:50:18.392Z,56.82
2016-08-25T08:51:30.668Z,56.52
2016-08-25T08:52:42.224Z,56.52
2016-08-25T08:53:54.505Z,56.82
2016-08-25T08:55:06.808Z,56.62
2016-08-25T08:56:18.387Z,56.52
2016-08-25T08:57:30.679Z,56.52
2016-08-25T08:58:42.248Z,56.56
2016-08-25T08:59:54.533Z,56.65
2016-08-25T09:01:06.825Z,56.46
2016-08-25T09:02:19.116Z,56.46
2016-08-25T09:03:29.997Z,56.56
2016-08-25T09:04:42.274Z,56.65
2016-08-25T09:05:54.553Z,57.04
2016-08-25T09:07:06.132Z,56.26
2016-08-25T09:08:18.422Z,57.23
2016-08-25T09:09:30.708Z,57.07
2016-08-25T09:10:42.291Z,57.07
2016-08-25T09:11:54.575Z,56.97
2016-08-25T09:13:06.857Z,56.97
2016-08-25T09:14:19.150Z,56.87
2016-08-25T09:15:30.745Z,56.97
2016-08-25T09:16:42.334Z,56.97
2016-08-25T09:17:53.223Z,56.77
2016-08-25T09:19:05.523Z,56.39
2016-08-25T09:20:17.806Z,56.68
2016-08-25T09:21:30.106Z,56.59
2016-08-25T09:22:42.371Z,56.68
2016-08-25T09:23:53.948Z,56.32
2016-08-25T09:25:06.239Z,56.39
2016-08-25T09:26:18.510Z,56.71
2016-08-25T09:27:30.795Z,56.41
2016-08-25T09:28:43.083Z,56.41
2016-08-25T09:29:55.368Z,56.71
2016-08-25T09:31:06.973Z,56.32
2016-08-25T09:32:18.555Z,56.61
2016-08-25T09:33:30.850Z,56.45
2016-08-25T09:34:43.133Z,56.32
2016-08-25T09:35:55.422Z,56.35
2016-08-25T09:37:07.003Z,56.35
2016-08-25T09:38:18.583Z,55.96
2016-08-25T09:39:29.466Z,55.89
2016-08-25T09:40:41.030Z,56.45
2016-08-25T09:41:53.351Z,56.45
2016-08-25T09:43:05.653Z,56.57
2016-08-25T09:44:17.230Z,56.37
2016-08-25T09:45:28.821Z,56.35
2016-08-25T09:46:41.102Z,56.57
2016-08-25T09:47:53.380Z,56.37
2016-08-25T09:49:04.947Z,56.27
2016-08-25T09:50:17.233Z,56.27
2016-08-25T09:51:29.537Z,56.18
2016-08-25T09:52:41.833Z,55.89
2016-08-25T09:53:54.108Z,55.89
2016-08-25T09:55:06.396Z,56.27
2016-08-25T09:56:18.009Z,56.37
2016-08-25T09:57:29.663Z,55.89
2016-08-25T09:58:41.941Z,56.11
2016-08-25T09:59:53.518Z,56.21
2016-08-25T10:01:05.822Z,56.5
2016-08-25T10:02:18.092Z,56.4
2016-08-25T10:03:30.378Z,55.91
2016-08-25T10:04:42.665Z,55.91
2016-08-25T10:05:54.946Z,55.91
2016-08-25T10:07:05.833Z,55.91
2016-08-25T10:08:18.131Z,55.91
2016-08-25T10:09:29.708Z,55.91
2016-08-25T10:10:41.994Z,56.21
2016-08-25T10:11:52.868Z,56.11
2016-08-25T10:13:04.457Z,56.4
2016-08-25T10:14:16.733Z,56.3
2016-08-25T10:15:29.030Z,55.91
2016-08-25T10:16:41.337Z,56.21
2016-08-25T10:17:53.644Z,56.01
2016-08-25T10:19:05.481Z,56.3
2016-08-25T10:20:17.793Z,56.23
2016-08-25T10:21:29.369Z,55.75
2016-08-25T10:22:40.962Z,55.85
2016-08-25T10:23:53.261Z,55.85
2016-08-25T10:25:05.564Z,55.75
2016-08-25T10:26:17.849Z,55.94
2016-08-25T10:27:30.144Z,55.85
2016-08-25T10:28:42.453Z,55.85
2016-08-25T10:29:54.737Z,55.77
2016-08-25T10:31:06.343Z,55.77
2016-08-25T10:32:18.622Z,56.07
2016-08-25T10:33:30.202Z,55.77
2016-08-25T10:34:42.482Z,55.87
2016-08-25T10:35:54.775Z,56.23
2016-08-25T10:37:06.365Z,56.16
2016-08-25T10:38:18.657Z,55.77
2016-08-25T10:39:30.947Z,55.87
2016-08-25T10:40:43.221Z,55.97
2016-08-25T10:41:54.809Z,56.16
2016-08-25T10:43:07.086Z,55.77
2016-08-25T10:44:19.368Z,56.16
2016-08-25T10:45:31.662Z,55.87
2016-08-25T10:46:42.537Z,55.71
2016-08-25T10:47:54.828Z,56
2016-08-25T10:49:07.112Z,55.61
2016-08-25T10:50:19.389Z,55.61
2016-08-25T10:51:31.674Z,55.41
2016-08-25T10:52:43.970Z,55.8
2016-08-25T10:53:55.564Z,55.8
2016-08-25T10:55:07.139Z,55.51
2016-08-25T10:56:18.713Z,55.41
2016-08-25T10:57:31.008Z,55.41
2016-08-25T10:58:43.294Z,55.63
2016-08-25T10:59:55.589Z,55.63
2016-08-25T11:01:07.868Z,55.93
2016-08-25T11:02:20.152Z,55.54
2016-08-25T11:03:32.437Z,55.73
2016-08-25T11:04:44.020Z,55.86
2016-08-25T11:05:56.316Z,55.76
2016-08-25T11:07:08.599Z,55.76
2016-08-25T11:08:20.877Z,55.66
2016-08-25T11:09:33.214Z,55.69
2016-08-25T11:10:45.510Z,55.69
2016-08-25T11:11:57.781Z,55.79
2016-08-25T11:13:10.074Z,55.59
2016-08-25T11:14:22.374Z,55.49
2016-08-25T11:15:34.666Z,55.88
2016-08-25T11:16:46.267Z,55.88
2016-08-25T11:17:58.543Z,56.1
2016-08-25T11:19:10.858Z,55.79
2016-08-25T11:20:22.459Z,55.81
2016-08-25T11:21:34.746Z,55.71
2016-08-25T11:22:47.015Z,55.81
2016-08-25T11:23:58.613Z,55.81
2016-08-25T11:25:10.888Z,55.91
2016-08-25T11:26:23.178Z,55.91
2016-08-25T11:27:35.462Z,55.91
2016-08-25T11:28:47.733Z,56.01
2016-08-25T11:29:59.316Z,55.62
2016-08-25T11:31:10.902Z,55.81
2016-08-25T11:32:23.192Z,55.71
2016-08-25T11:33:34.759Z,55.71
2016-08-25T11:34:47.053Z,55.81
2016-08-25T11:35:58.636Z,55.81
2016-08-25T11:37:10.914Z,55.91
2016-08-25T11:38:23.219Z,55.91
2016-08-25T11:39:34.804Z,55.91
2016-08-25T11:40:46.406Z,55.91
2016-08-25T11:41:57.990Z,55.71
2016-08-25T11:43:10.295Z,55.91
2016-08-25T11:44:21.874Z,55.71
2016-08-25T11:45:33.451Z,55.91
2016-08-25T11:46:45.745Z,55.81
2016-08-25T11:47:57.343Z,55.94
2016-08-25T11:49:08.901Z,55.91
2016-08-25T11:50:21.200Z,55.94
2016-08-25T11:51:32.087Z,55.84
2016-08-25T11:52:44.376Z,55.26
2016-08-25T11:53:56.667Z,55.28
2016-08-25T11:55:08.943Z,55.18
2016-08-25T11:56:19.836Z,55.18
2016-08-25T11:57:32.122Z,55.01
2016-08-25T11:58:44.411Z,55.01
2016-08-25T11:59:56.686Z,54.82
2016-08-25T12:01:08.972Z,54.82
2016-08-25T12:02:21.249Z,54.91
2016-08-25T12:03:32.844Z,55.11
2016-08-25T12:04:44.443Z,55.31
2016-08-25T12:05:56.055Z,55.51
2016-08-25T12:07:08.351Z,55.31
2016-08-25T12:08:20.654Z,55.21
2016-08-25T12:09:32.275Z,55.21
2016-08-25T12:10:43.170Z,55.31
2016-08-25T12:11:55.440Z,55.31
2016-08-25T12:13:07.746Z,55.41
2016-08-25T12:14:19.320Z,55.8
2016-08-25T12:15:31.623Z,55.6
2016-08-25T12:16:43.908Z,55.77
2016-08-25T12:17:56.206Z,55.99
2016-08-25T12:19:08.485Z,55.21
2016-08-25T12:20:20.075Z,55.24
2016-08-25T12:21:32.354Z,54.85
2016-08-25T12:22:44.624Z,54.85
2016-08-25T12:23:56.207Z,54.94
2016-08-25T12:25:08.488Z,54.85
2016-08-25T12:26:20.073Z,55.14
2016-08-25T12:27:32.362Z,55.07
2016-08-25T12:28:43.942Z,55.14
2016-08-25T12:29:56.211Z,55.43
2016-08-25T12:31:08.507Z,55.33
2016-08-25T12:32:20.831Z,55.53
2016-08-25T12:33:32.417Z,55.63
2016-08-25T12:34:44.688Z,55.43
2016-08-25T12:35:56.973Z,55.33
2016-08-25T12:37:09.265Z,55.43
2016-08-25T12:38:21.553Z,55.36
2016-08-25T12:39:33.831Z,55.36
2016-08-25T12:40:46.143Z,55.46
2016-08-25T12:41:57.736Z,55.36
2016-08-25T12:43:09.309Z,55.26
2016-08-25T12:44:21.601Z,55.39
2016-08-25T12:45:34.017Z,55.36
2016-08-25T12:46:46.330Z,55.58
2016-08-25T12:47:58.622Z,55.29
2016-08-25T12:49:10.208Z,55.98
2016-08-25T12:50:22.505Z,55.98
2016-08-25T12:51:34.790Z,56.07
2016-08-25T12:52:46.395Z,55.78
2016-08-25T12:53:57.985Z,56.05
2016-08-25T12:55:10.296Z,55.95
2016-08-25T12:56:22.592Z,55.66
2016-08-25T12:57:34.876Z,55.82
2016-08-25T12:58:46.468Z,55.53
2016-08-25T12:59:58.750Z,55.63
2016-08-25T13:01:10.331Z,55.73
2016-08-25T13:02:22.624Z,55.82
2016-08-25T13:03:34.921Z,55.92
2016-08-25T13:12:27.555Z,55.73
2016-08-25T13:13:40.470Z,55.73
2016-08-25T13:14:52.514Z,55.92
2016-08-25T13:16:04.823Z,55.92
2016-08-25T13:17:16.386Z,55.99
2016-08-25T13:18:29.087Z,55.99
2016-08-25T13:19:41.590Z,55.99
2016-08-25T13:20:53.923Z,56.09
2016-08-25T13:22:06.419Z,55.99
2016-08-25T13:23:18.913Z,55.96
2016-08-25T13:24:31.252Z,55.99
2016-08-25T13:25:43.552Z,55.99
2016-08-25T13:26:56.110Z,55.99
2016-08-25T13:28:08.447Z,55.67
2016-08-25T13:29:20.070Z,55.77
2016-08-25T13:30:32.345Z,55.57
2016-08-25T13:31:44.632Z,55.6
2016-08-25T13:32:56.918Z,55.6
2016-08-25T13:34:09.409Z,55.6
2016-08-25T13:35:21.697Z,55.87
2016-08-25T13:36:33.987Z,55.87
2016-08-25T13:37:46.286Z,56.06
2016-08-25T13:38:58.567Z,55.87
2016-08-25T13:40:10.157Z,56.16
2016-08-25T13:41:22.450Z,55.96
2016-08-25T13:42:34.757Z,55.96
2016-08-25T13:43:47.059Z,55.8
2016-08-25T13:44:59.350Z,55.57
2016-08-25T13:46:11.628Z,55.6
2016-08-25T13:47:24.358Z,55.8
2016-08-25T13:48:36.631Z,55.99
2016-08-25T13:49:48.908Z,55.7
2016-08-25T13:51:01.178Z,55.77
2016-08-25T13:52:13.478Z,55.87
2016-08-25T13:53:25.783Z,55.96
2016-08-25T13:54:38.084Z,56.06
2016-08-25T13:55:50.365Z,56.06
2016-08-25T13:57:01.941Z,55.96
2016-08-25T13:58:13.542Z,55.87
2016-08-25T13:59:25.836Z,56.06
2016-08-25T14:00:36.715Z,55.87
2016-08-25T14:01:48.299Z,56.16
2016-08-25T14:03:00.594Z,55.87
2016-08-25T14:04:12.875Z,55.96
2016-08-25T14:05:24.473Z,56.06
2016-08-25T14:06:36.769Z,55.87
2016-08-25T14:07:49.062Z,55.87
2016-08-25T14:09:01.321Z,55.87
2016-08-25T14:10:13.600Z,55.57
2016-08-25T14:11:25.908Z,55.8
2016-08-25T14:12:38.214Z,55.6
2016-08-25T14:13:49.785Z,55.8
2016-08-25T14:15:02.065Z,56.06
2016-08-25T14:16:13.650Z,55.96
2016-08-25T14:17:25.945Z,55.87
2016-08-25T14:18:38.213Z,55.87
2016-08-25T14:19:49.784Z,56.46
2016-08-25T14:21:01.350Z,56.46
2016-08-25T14:22:13.633Z,56.56
2016-08-25T14:23:25.902Z,56.56
2016-08-25T14:24:37.492Z,56.36
2016-08-25T14:25:49.770Z,56.26
2016-08-25T14:27:02.063Z,56.26
2016-08-25T14:28:13.637Z,56.65
2016-08-25T14:29:25.913Z,56.46
2016-08-25T14:30:37.477Z,56.26
2016-08-25T14:31:49.032Z,56.33
2016-08-25T14:33:01.308Z,56.16
2016-08-25T14:34:13.586Z,57.04
2016-08-25T14:35:25.856Z,56.82
2016-08-25T14:36:38.138Z,56.62
2016-08-25T14:37:50.440Z,56.72
2016-08-25T14:39:02.741Z,56.52
2016-08-25T14:40:14.343Z,56.72
2016-08-25T14:41:25.213Z,56.43
2016-08-25T14:42:37.497Z,56.7
2016-08-25T14:43:49.775Z,56.6
2016-08-25T14:45:02.067Z,56.89
2016-08-25T14:46:14.378Z,56.7
2016-08-25T14:47:26.663Z,56.7
2016-08-25T14:48:38.955Z,56.4
2016-08-25T14:49:51.233Z,57.09
2016-08-25T14:51:03.516Z,56.79
2016-08-25T14:52:15.075Z,56.7
2016-08-25T14:53:27.382Z,56.79
2016-08-25T14:54:38.950Z,56.79
2016-08-25T14:55:51.243Z,57.09
2016-08-25T14:57:03.226Z,56.7
2016-08-25T14:58:15.549Z,57.09
2016-08-25T14:59:27.855Z,56.6
2016-08-25T15:00:40.188Z,56.89
2016-08-25T15:01:51.825Z,56.7
2016-08-25T15:03:04.158Z,56.89
2016-08-25T15:04:16.491Z,56.79
2016-08-25T15:05:28.826Z,56.99
2016-08-25T15:06:41.157Z,56.7
2016-08-25T15:07:53.481Z,57.28
2016-08-25T15:09:05.080Z,57.67
2016-08-25T15:10:16.723Z,57.25
2016-08-25T15:11:29.080Z,57.28
2016-08-25T15:12:40.700Z,56.86
2016-08-25T15:13:52.316Z,56.96
2016-08-25T15:15:04.643Z,56.96
2016-08-25T15:16:16.976Z,57.35
2016-08-25T15:17:29.291Z,56.86
2016-08-25T15:18:41.607Z,57.25
2016-08-25T15:19:53.922Z,57.25
2016-08-25T15:21:06.240Z,56.86
2016-08-25T15:22:18.551Z,56.96
2016-08-25T15:23:30.896Z,57.35
2016-08-25T15:24:43.221Z,57.15
2016-08-25T15:25:54.844Z,57.45
2016-08-25T15:27:06.457Z,57.45
2016-08-25T15:28:18.759Z,57.64
2016-08-25T15:29:30.373Z,57.54
2016-08-25T15:30:42.699Z,57.45
2016-08-25T15:31:55.017Z,57.42
2016-08-25T15:33:07.345Z,57.32
2016-08-25T15:34:19.684Z,57.13
2016-08-25T15:35:31.280Z,57.23
2016-08-25T15:36:43.601Z,57.32
2016-08-25T15:37:55.232Z,57.32
2016-08-25T15:39:07.538Z,57.03
2016-08-25T15:40:19.156Z,57.13
2016-08-25T15:41:31.496Z,57.13
2016-08-25T15:42:43.828Z,57.13
2016-08-25T15:43:56.174Z,57.32
2016-08-25T15:45:08.487Z,57.42
2016-08-25T15:46:20.790Z,57.59
2016-08-25T15:47:33.114Z,57.49
2016-08-25T15:48:45.435Z,57.59
2016-08-25T15:49:57.746Z,57.2
2016-08-25T15:51:10.076Z,57.49
2016-08-25T15:52:21.706Z,57.49
2016-08-25T15:53:34.030Z,57.39
2016-08-25T15:54:46.352Z,57.29
2016-08-25T15:55:58.666Z,57.39
2016-08-25T15:57:10.299Z,57.59
2016-08-25T15:58:20.496Z,57.39
2016-08-25T15:59:32.813Z,57.39
2016-08-25T16:00:45.148Z,58.34
2016-08-25T16:01:57.463Z,58.17
2016-08-25T16:03:09.774Z,57.95
2016-08-25T16:04:22.082Z,57.95
2016-08-25T16:05:34.393Z,58.14
2016-08-25T16:06:45.996Z,57.95
2016-08-25T16:07:58.349Z,57.65
2016-08-25T16:09:09.941Z,57.75
2016-08-25T16:10:22.238Z,57.75
2016-08-25T16:11:34.599Z,57.92
2016-08-25T16:12:46.925Z,58.02
2016-08-25T16:13:59.244Z,57.82
2016-08-25T16:15:11.570Z,57.92
2016-08-25T16:16:23.873Z,57.82
2016-08-25T16:17:36.176Z,58.02